sensor_id;sensor_type;location;lat;lon;timestamp;pressure;altitude;pressure_sealevel;temperature;humidity
63097;BME280;49185;42.320;23.198;2023-03-11T00:01:00;93114.25;;;9.74;92.53
63097;BME280;49185;42.320;23.198;2023-03-11T00:03:25;93121.00;;;9.66;92.92
63097;BME280;49185;42.320;23.198;2023-03-11T00:05:52;93141.34;;;9.76;92.99
63097;BME280;49185;42.320;23.198;2023-03-11T00:08:21;93151.00;;;9.66;90.98
63097;BME280;49185;42.320;23.198;2023-03-11T00:10:51;93160.13;;;9.26;91.41
63097;BME280;49185;42.320;23.198;2023-03-11T00:13:17;93159.34;;;8.91;94.65
63097;BME280;49185;42.320;23.198;2023-03-11T00:15:46;93162.56;;;8.43;95.76
63097;BME280;49185;42.320;23.198;2023-03-11T00:18:12;93160.84;;;8.13;95.32
63097;BME280;49185;42.320;23.198;2023-03-11T00:20:39;93161.84;;;8.27;93.63
63097;BME280;49185;42.320;23.198;2023-03-11T00:23:07;93167.72;;;8.09;92.05
63097;BME280;49185;42.320;23.198;2023-03-11T00:25:34;93162.69;;;8.07;90.94
63097;BME280;49185;42.320;23.198;2023-03-11T00:28:00;93167.34;;;8.36;89.32
63097;BME280;49185;42.320;23.198;2023-03-11T00:30:26;93159.50;;;8.15;90.13
63097;BME280;49185;42.320;23.198;2023-03-11T00:32:55;93155.53;;;8.18;90.99
63097;BME280;49185;42.320;23.198;2023-03-11T00:35:24;93156.53;;;8.27;88.54
63097;BME280;49185;42.320;23.198;2023-03-11T00:37:53;93143.22;;;8.87;84.26
63097;BME280;49185;42.320;23.198;2023-03-11T00:40:20;93145.25;;;8.96;82.75
63097;BME280;49185;42.320;23.198;2023-03-11T00:42:46;93134.38;;;8.97;83.96
63097;BME280;49185;42.320;23.198;2023-03-11T00:45:12;93131.63;;;9.07;84.23
63097;BME280;49185;42.320;23.198;2023-03-11T00:47:38;93130.16;;;9.25;83.19
63097;BME280;49185;42.320;23.198;2023-03-11T00:50:04;93118.66;;;9.06;84.57
63097;BME280;49185;42.320;23.198;2023-03-11T00:52:30;93106.63;;;9.43;82.19
63097;BME280;49185;42.320;23.198;2023-03-11T00:54:57;93104.03;;;9.38;82.50
63097;BME280;49185;42.320;23.198;2023-03-11T00:57:23;93101.00;;;9.49;82.54
63097;BME280;49185;42.320;23.198;2023-03-11T00:59:48;93102.22;;;9.57;81.89
63097;BME280;49185;42.320;23.198;2023-03-11T01:02:14;93098.84;;;9.52;80.86
63097;BME280;49185;42.320;23.198;2023-03-11T01:04:39;93097.03;;;9.47;80.73
63097;BME280;49185;42.320;23.198;2023-03-11T01:07:05;93104.06;;;9.62;80.12
63097;BME280;49185;42.320;23.198;2023-03-11T01:09:30;93095.13;;;9.53;81.33
63097;BME280;49185;42.320;23.198;2023-03-11T01:11:56;93086.41;;;9.47;80.01
63097;BME280;49185;42.320;23.198;2023-03-11T01:14:21;93088.47;;;9.55;78.81
63097;BME280;49185;42.320;23.198;2023-03-11T01:16:47;93079.88;;;9.63;79.28
63097;BME280;49185;42.320;23.198;2023-03-11T01:19:12;93076.88;;;9.70;78.56
63097;BME280;49185;42.320;23.198;2023-03-11T01:21:38;93076.56;;;9.53;79.59
63097;BME280;49185;42.320;23.198;2023-03-11T01:24:03;93077.38;;;9.48;79.65
63097;BME280;49185;42.320;23.198;2023-03-11T01:26:29;93074.44;;;9.49;79.54
63097;BME280;49185;42.320;23.198;2023-03-11T01:28:54;93067.56;;;9.48;79.45
63097;BME280;49185;42.320;23.198;2023-03-11T01:31:20;93052.03;;;9.37;79.58
63097;BME280;49185;42.320;23.198;2023-03-11T01:33:45;93042.44;;;9.41;79.56
63097;BME280;49185;42.320;23.198;2023-03-11T01:36:10;93024.47;;;9.57;78.50
63097;BME280;49185;42.320;23.198;2023-03-11T01:38:36;93017.75;;;9.40;79.24
63097;BME280;49185;42.320;23.198;2023-03-11T01:41:02;93019.50;;;9.50;77.82
63097;BME280;49185;42.320;23.198;2023-03-11T01:43:46;93006.44;;;9.29;78.07
63097;BME280;49185;42.320;23.198;2023-03-11T01:48:51;92985.06;;;9.64;76.46
63097;BME280;49185;42.320;23.198;2023-03-11T01:51:30;92972.34;;;9.42;77.73
63097;BME280;49185;42.320;23.198;2023-03-11T01:53:58;92967.38;;;9.35;77.44
63097;BME280;49185;42.320;23.198;2023-03-11T01:56:25;92972.19;;;9.33;77.72
63097;BME280;49185;42.320;23.198;2023-03-11T01:58:52;92976.50;;;9.48;76.69
63097;BME280;49185;42.320;23.198;2023-03-11T02:01:19;92965.06;;;9.53;75.79
63097;BME280;49185;42.320;23.198;2023-03-11T02:03:46;92978.19;;;9.63;75.28
63097;BME280;49185;42.320;23.198;2023-03-11T02:06:15;92975.72;;;9.47;77.25
63097;BME280;49185;42.320;23.198;2023-03-11T02:08:41;92988.06;;;9.57;76.04
63097;BME280;49185;42.320;23.198;2023-03-11T02:11:14;93001.16;;;9.73;74.45
63097;BME280;49185;42.320;23.198;2023-03-11T02:13:41;93003.81;;;9.73;74.29
63097;BME280;49185;42.320;23.198;2023-03-11T02:16:08;93009.25;;;9.62;75.01
63097;BME280;49185;42.320;23.198;2023-03-11T02:18:33;93015.78;;;9.70;74.41
63097;BME280;49185;42.320;23.198;2023-03-11T02:21:14;93027.00;;;9.67;75.56
63097;BME280;49185;42.320;23.198;2023-03-11T02:24:01;93031.94;;;9.55;76.70
63097;BME280;49185;42.320;23.198;2023-03-11T02:26:32;93045.81;;;9.46;77.47
63097;BME280;49185;42.320;23.198;2023-03-11T02:29:02;93047.28;;;9.34;77.99
63097;BME280;49185;42.320;23.198;2023-03-11T02:31:30;93053.47;;;9.24;78.83
63097;BME280;49185;42.320;23.198;2023-03-11T02:33:58;93051.19;;;9.17;78.93
63097;BME280;49185;42.320;23.198;2023-03-11T02:36:37;93064.50;;;9.12;79.87
63097;BME280;49185;42.320;23.198;2023-03-11T02:39:04;93061.06;;;9.06;80.79
63097;BME280;49185;42.320;23.198;2023-03-11T02:41:31;93071.22;;;8.99;81.08
63097;BME280;49185;42.320;23.198;2023-03-11T02:43:58;93073.88;;;8.99;81.25
63097;BME280;49185;42.320;23.198;2023-03-11T02:46:24;93075.97;;;9.02;81.16
63097;BME280;49185;42.320;23.198;2023-03-11T02:48:52;93084.94;;;9.06;80.69
63097;BME280;49185;42.320;23.198;2023-03-11T02:51:18;93084.63;;;9.13;80.24
63097;BME280;49185;42.320;23.198;2023-03-11T02:53:47;93095.75;;;9.15;80.08
63097;BME280;49185;42.320;23.198;2023-03-11T02:56:14;93099.44;;;9.19;79.93
63097;BME280;49185;42.320;23.198;2023-03-11T02:58:39;93105.63;;;9.09;80.22
63097;BME280;49185;42.320;23.198;2023-03-11T03:01:04;93097.25;;;9.26;77.69
63097;BME280;49185;42.320;23.198;2023-03-11T03:03:30;93099.94;;;9.21;79.43
63097;BME280;49185;42.320;23.198;2023-03-11T03:05:55;93105.94;;;9.32;79.53
63097;BME280;49185;42.320;23.198;2023-03-11T03:08:21;93097.97;;;9.32;79.14
63097;BME280;49185;42.320;23.198;2023-03-11T03:10:46;93095.84;;;9.34;79.41
63097;BME280;49185;42.320;23.198;2023-03-11T03:13:12;93093.22;;;9.29;79.12
63097;BME280;49185;42.320;23.198;2023-03-11T03:15:38;93094.66;;;9.21;80.66
63097;BME280;49185;42.320;23.198;2023-03-11T03:18:03;93092.81;;;9.17;80.37
63097;BME280;49185;42.320;23.198;2023-03-11T03:20:29;93104.16;;;9.22;79.67
63097;BME280;49185;42.320;23.198;2023-03-11T03:22:55;93108.75;;;9.17;79.20
63097;BME280;49185;42.320;23.198;2023-03-11T03:25:20;93085.72;;;9.12;78.45
63097;BME280;49185;42.320;23.198;2023-03-11T03:27:46;93078.91;;;9.30;77.93
63097;BME280;49185;42.320;23.198;2023-03-11T03:30:11;93076.81;;;9.27;78.27
63097;BME280;49185;42.320;23.198;2023-03-11T03:32:37;93078.94;;;9.25;79.02
63097;BME280;49185;42.320;23.198;2023-03-11T03:35:02;93080.63;;;9.16;79.65
63097;BME280;49185;42.320;23.198;2023-03-11T03:37:32;93084.13;;;9.11;80.18
63097;BME280;49185;42.320;23.198;2023-03-11T03:39:58;93081.88;;;8.94;78.93
63097;BME280;49185;42.320;23.198;2023-03-11T03:42:23;93093.47;;;9.03;77.58
63097;BME280;49185;42.320;23.198;2023-03-11T03:44:48;93086.22;;;9.14;77.24
63097;BME280;49185;42.320;23.198;2023-03-11T03:47:14;93080.06;;;9.19;77.68
63097;BME280;49185;42.320;23.198;2023-03-11T03:49:39;93092.78;;;9.22;76.57
63097;BME280;49185;42.320;23.198;2023-03-11T03:52:06;93088.44;;;9.31;76.77
63097;BME280;49185;42.320;23.198;2023-03-11T03:54:31;93090.53;;;9.34;75.63
63097;BME280;49185;42.320;23.198;2023-03-11T03:56:57;93091.72;;;9.23;77.36
63097;BME280;49185;42.320;23.198;2023-03-11T03:59:22;93086.13;;;9.48;75.20
63097;BME280;49185;42.320;23.198;2023-03-11T04:01:48;93102.06;;;9.48;75.67
63097;BME280;49185;42.320;23.198;2023-03-11T04:04:13;93095.13;;;9.53;75.13
63097;BME280;49185;42.320;23.198;2023-03-11T04:06:39;93099.41;;;9.48;75.71
63097;BME280;49185;42.320;23.198;2023-03-11T04:09:04;93102.38;;;9.18;76.77
63097;BME280;49185;42.320;23.198;2023-03-11T04:11:31;93112.72;;;9.19;76.80
63097;BME280;49185;42.320;23.198;2023-03-11T04:13:56;93111.63;;;9.20;77.00
63097;BME280;49185;42.320;23.198;2023-03-11T04:16:22;93104.75;;;9.43;75.48
63097;BME280;49185;42.320;23.198;2023-03-11T04:18:48;93112.84;;;9.33;76.14
63097;BME280;49185;42.320;23.198;2023-03-11T04:21:14;93105.09;;;9.07;77.74
63097;BME280;49185;42.320;23.198;2023-03-11T04:23:40;93109.34;;;9.08;77.59
63097;BME280;49185;42.320;23.198;2023-03-11T04:26:05;93096.53;;;9.45;75.85
63097;BME280;49185;42.320;23.198;2023-03-11T04:28:31;93098.28;;;9.55;74.75
63097;BME280;49185;42.320;23.198;2023-03-11T04:30:57;93095.75;;;9.44;75.16
63097;BME280;49185;42.320;23.198;2023-03-11T04:33:22;93093.50;;;9.27;76.33
63097;BME280;49185;42.320;23.198;2023-03-11T04:35:47;93093.81;;;9.50;75.15
63097;BME280;49185;42.320;23.198;2023-03-11T04:38:13;93104.72;;;9.48;75.10
63097;BME280;49185;42.320;23.198;2023-03-11T04:40:38;93098.81;;;9.27;75.59
63097;BME280;49185;42.320;23.198;2023-03-11T04:43:04;93110.69;;;9.35;75.88
63097;BME280;49185;42.320;23.198;2023-03-11T04:45:30;93102.00;;;9.54;74.44
63097;BME280;49185;42.320;23.198;2023-03-11T04:47:56;93100.38;;;9.58;74.65
63097;BME280;49185;42.320;23.198;2023-03-11T04:50:21;93102.78;;;9.54;74.01
63097;BME280;49185;42.320;23.198;2023-03-11T04:52:47;93102.63;;;9.45;74.73
63097;BME280;49185;42.320;23.198;2023-03-11T04:55:13;93109.38;;;9.32;75.31
63097;BME280;49185;42.320;23.198;2023-03-11T04:57:42;93113.97;;;9.27;75.77
63097;BME280;49185;42.320;23.198;2023-03-11T05:00:09;93114.75;;;9.27;75.33
63097;BME280;49185;42.320;23.198;2023-03-11T05:02:35;93115.97;;;9.40;75.40
63097;BME280;49185;42.320;23.198;2023-03-11T05:05:01;93112.22;;;9.41;75.22
63097;BME280;49185;42.320;23.198;2023-03-11T05:07:26;93110.56;;;9.45;74.66
63097;BME280;49185;42.320;23.198;2023-03-11T05:09:52;93109.72;;;9.26;75.09
63097;BME280;49185;42.320;23.198;2023-03-11T05:12:17;93102.91;;;9.44;73.73
63097;BME280;49185;42.320;23.198;2023-03-11T05:14:43;93110.25;;;9.52;74.13
63097;BME280;49185;42.320;23.198;2023-03-11T05:17:08;93116.38;;;9.53;74.03
63097;BME280;49185;42.320;23.198;2023-03-11T05:19:34;93113.09;;;9.37;73.94
63097;BME280;49185;42.320;23.198;2023-03-11T05:22:00;93117.72;;;9.50;74.33
63097;BME280;49185;42.320;23.198;2023-03-11T05:24:26;93120.72;;;9.67;73.31
63097;BME280;49185;42.320;23.198;2023-03-11T05:26:52;93116.25;;;9.63;72.79
63097;BME280;49185;42.320;23.198;2023-03-11T05:29:18;93115.19;;;9.64;72.94
63097;BME280;49185;42.320;23.198;2023-03-11T05:31:43;93127.38;;;9.41;73.85
63097;BME280;49185;42.320;23.198;2023-03-11T05:34:09;93126.25;;;9.18;74.81
63097;BME280;49185;42.320;23.198;2023-03-11T05:36:34;93120.50;;;9.35;75.15
63097;BME280;49185;42.320;23.198;2023-03-11T05:39:00;93127.59;;;9.44;74.16
63097;BME280;49185;42.320;23.198;2023-03-11T05:41:25;93121.88;;;9.32;75.13
63097;BME280;49185;42.320;23.198;2023-03-11T05:43:51;93119.72;;;9.34;75.36
63097;BME280;49185;42.320;23.198;2023-03-11T05:46:16;93137.91;;;9.17;75.63
63097;BME280;49185;42.320;23.198;2023-03-11T05:48:42;93130.16;;;9.55;74.48
63097;BME280;49185;42.320;23.198;2023-03-11T05:51:09;93138.56;;;9.32;74.96
63097;BME280;49185;42.320;23.198;2023-03-11T05:53:35;93147.50;;;9.42;75.34
63097;BME280;49185;42.320;23.198;2023-03-11T05:56:01;93145.03;;;9.50;74.75
63097;BME280;49185;42.320;23.198;2023-03-11T05:58:31;93150.56;;;9.54;75.33
63097;BME280;49185;42.320;23.198;2023-03-11T06:00:56;93161.09;;;9.40;74.58
63097;BME280;49185;42.320;23.198;2023-03-11T06:03:22;93165.63;;;9.64;74.20
63097;BME280;49185;42.320;23.198;2023-03-11T06:05:49;93164.84;;;9.34;74.58
63097;BME280;49185;42.320;23.198;2023-03-11T06:08:15;93166.56;;;9.49;73.70
63097;BME280;49185;42.320;23.198;2023-03-11T06:10:41;93159.22;;;9.41;75.48
63097;BME280;49185;42.320;23.198;2023-03-11T06:13:08;93170.34;;;9.72;74.32
63097;BME280;49185;42.320;23.198;2023-03-11T06:15:34;93168.41;;;10.02;74.22
63097;BME280;49185;42.320;23.198;2023-03-11T06:18:01;93180.31;;;9.56;75.37
63097;BME280;49185;42.320;23.198;2023-03-11T06:20:27;93174.06;;;9.71;75.85
63097;BME280;49185;42.320;23.198;2023-03-11T06:22:52;93173.56;;;9.69;77.12
63097;BME280;49185;42.320;23.198;2023-03-11T06:25:18;93173.28;;;9.41;77.77
63097;BME280;49185;42.320;23.198;2023-03-11T06:27:47;93174.88;;;9.42;78.76
63097;BME280;49185;42.320;23.198;2023-03-11T06:30:13;93185.06;;;9.30;79.87
63097;BME280;49185;42.320;23.198;2023-03-11T06:32:39;93186.69;;;9.84;76.73
63097;BME280;49185;42.320;23.198;2023-03-11T06:35:04;93184.78;;;10.09;73.67
63097;BME280;49185;42.320;23.198;2023-03-11T06:37:30;93182.34;;;10.13;73.05
63097;BME280;49185;42.320;23.198;2023-03-11T06:39:56;93185.88;;;10.32;72.84
63097;BME280;49185;42.320;23.198;2023-03-11T06:42:21;93186.56;;;10.43;73.15
63097;BME280;49185;42.320;23.198;2023-03-11T06:44:47;93179.56;;;10.71;73.39
63097;BME280;49185;42.320;23.198;2023-03-11T06:47:12;93175.94;;;10.43;73.33
63097;BME280;49185;42.320;23.198;2023-03-11T06:49:38;93168.75;;;10.43;74.59
63097;BME280;49185;42.320;23.198;2023-03-11T06:52:03;93174.22;;;10.71;72.60
63097;BME280;49185;42.320;23.198;2023-03-11T06:54:29;93183.56;;;10.69;72.81
63097;BME280;49185;42.320;23.198;2023-03-11T06:56:54;93176.66;;;10.87;72.57
63097;BME280;49185;42.320;23.198;2023-03-11T06:59:19;93183.53;;;10.50;71.79
63097;BME280;49185;42.320;23.198;2023-03-11T07:01:48;93181.34;;;11.14;69.52
63097;BME280;49185;42.320;23.198;2023-03-11T07:04:13;93178.31;;;10.82;71.34
63097;BME280;49185;42.320;23.198;2023-03-11T07:06:40;93186.53;;;10.86;71.24
63097;BME280;49185;42.320;23.198;2023-03-11T07:09:06;93185.66;;;10.91;70.44
63097;BME280;49185;42.320;23.198;2023-03-11T07:11:31;93188.00;;;11.11;70.49
63097;BME280;49185;42.320;23.198;2023-03-11T07:13:58;93186.44;;;11.10;69.01
63097;BME280;49185;42.320;23.198;2023-03-11T07:16:25;93181.22;;;11.19;69.14
63097;BME280;49185;42.320;23.198;2023-03-11T07:18:53;93189.44;;;11.55;68.81
63097;BME280;49185;42.320;23.198;2023-03-11T07:21:21;93179.97;;;11.96;66.79
63097;BME280;49185;42.320;23.198;2023-03-11T07:23:51;93180.97;;;12.14;67.48
63097;BME280;49185;42.320;23.198;2023-03-11T07:26:17;93183.97;;;12.77;64.31
63097;BME280;49185;42.320;23.198;2023-03-11T07:28:42;93177.22;;;13.16;63.10
63097;BME280;49185;42.320;23.198;2023-03-11T07:31:11;93174.50;;;13.75;61.11
63097;BME280;49185;42.320;23.198;2023-03-11T07:33:37;93171.47;;;13.99;60.32
63097;BME280;49185;42.320;23.198;2023-03-11T07:36:11;93170.41;;;14.09;59.88
63097;BME280;49185;42.320;23.198;2023-03-11T07:38:37;93158.56;;;14.50;59.20
63097;BME280;49185;42.320;23.198;2023-03-11T07:41:04;93162.22;;;14.54;58.83
63097;BME280;49185;42.320;23.198;2023-03-11T07:43:30;93158.38;;;13.89;58.76
63097;BME280;49185;42.320;23.198;2023-03-11T07:46:10;93150.28;;;14.11;58.97
63097;BME280;49185;42.320;23.198;2023-03-11T07:48:37;93158.59;;;14.01;59.89
63097;BME280;49185;42.320;23.198;2023-03-11T07:51:09;93150.34;;;15.12;56.03
63097;BME280;49185;42.320;23.198;2023-03-11T07:53:35;93149.19;;;15.48;55.88
63097;BME280;49185;42.320;23.198;2023-03-11T07:56:03;93147.34;;;15.05;56.96
63097;BME280;49185;42.320;23.198;2023-03-11T07:58:29;93142.28;;;15.12;56.08
63097;BME280;49185;42.320;23.198;2023-03-11T08:00:55;93138.97;;;15.07;55.79
63097;BME280;49185;42.320;23.198;2023-03-11T08:03:23;93132.41;;;15.86;52.15
63097;BME280;49185;42.320;23.198;2023-03-11T08:05:49;93130.59;;;16.38;51.67
63097;BME280;49185;42.320;23.198;2023-03-11T08:08:15;93122.84;;;16.96;47.27
63097;BME280;49185;42.320;23.198;2023-03-11T08:10:40;93116.41;;;17.76;45.88
63097;BME280;49185;42.320;23.198;2023-03-11T08:13:06;93115.41;;;17.14;47.30
63097;BME280;49185;42.320;23.198;2023-03-11T08:15:31;93113.03;;;18.37;43.91
63097;BME280;49185;42.320;23.198;2023-03-11T08:17:57;93118.16;;;17.26;44.81
63097;BME280;49185;42.320;23.198;2023-03-11T08:20:22;93107.16;;;16.56;48.96
63097;BME280;49185;42.320;23.198;2023-03-11T08:22:48;93106.31;;;16.34;48.35
63097;BME280;49185;42.320;23.198;2023-03-11T08:25:13;93106.56;;;16.20;49.94
63097;BME280;49185;42.320;23.198;2023-03-11T08:27:39;93103.00;;;16.88;46.55
63097;BME280;49185;42.320;23.198;2023-03-11T08:30:05;93106.00;;;15.41;48.43
63097;BME280;49185;42.320;23.198;2023-03-11T08:32:31;93103.44;;;14.31;53.20
63097;BME280;49185;42.320;23.198;2023-03-11T08:34:57;93097.31;;;14.22;54.79
63097;BME280;49185;42.320;23.198;2023-03-11T08:37:22;93096.44;;;15.14;53.19
63097;BME280;49185;42.320;23.198;2023-03-11T08:39:48;93096.56;;;16.29;49.77
63097;BME280;49185;42.320;23.198;2023-03-11T08:42:15;93086.16;;;17.79;44.42
63097;BME280;49185;42.320;23.198;2023-03-11T08:44:41;93076.13;;;17.42;44.35
63097;BME280;49185;42.320;23.198;2023-03-11T08:47:06;93076.81;;;17.52;44.26
63097;BME280;49185;42.320;23.198;2023-03-11T08:49:32;93068.84;;;18.13;42.88
63097;BME280;49185;42.320;23.198;2023-03-11T08:51:57;93056.91;;;17.19;45.91
63097;BME280;49185;42.320;23.198;2023-03-11T08:54:23;93058.25;;;17.25;46.00
63097;BME280;49185;42.320;23.198;2023-03-11T08:56:48;93060.38;;;16.06;49.83
63097;BME280;49185;42.320;23.198;2023-03-11T08:59:14;93056.66;;;15.89;49.73
63097;BME280;49185;42.320;23.198;2023-03-11T09:01:39;93052.97;;;16.32;47.16
63097;BME280;49185;42.320;23.198;2023-03-11T09:04:05;93040.16;;;16.59;48.80
63097;BME280;49185;42.320;23.198;2023-03-11T09:06:30;93050.09;;;15.69;50.38
63097;BME280;49185;42.320;23.198;2023-03-11T09:08:56;93049.91;;;15.27;51.48
63097;BME280;49185;42.320;23.198;2023-03-11T09:11:22;93051.56;;;14.58;49.62
63097;BME280;49185;42.320;23.198;2023-03-11T09:13:48;93058.84;;;13.92;50.79
63097;BME280;49185;42.320;23.198;2023-03-11T09:16:16;93052.66;;;13.82;53.10
63097;BME280;49185;42.320;23.198;2023-03-11T09:18:42;93049.81;;;13.79;56.02
63097;BME280;49185;42.320;23.198;2023-03-11T09:21:08;93050.19;;;13.95;55.53
63097;BME280;49185;42.320;23.198;2023-03-11T09:23:34;93043.81;;;14.57;51.70
63097;BME280;49185;42.320;23.198;2023-03-11T09:25:59;93037.72;;;15.47;50.84
63097;BME280;49185;42.320;23.198;2023-03-11T09:28:25;93037.00;;;16.78;47.63
63097;BME280;49185;42.320;23.198;2023-03-11T09:30:50;93038.22;;;15.88;48.96
63097;BME280;49185;42.320;23.198;2023-03-11T09:33:16;93030.72;;;16.02;49.03
63097;BME280;49185;42.320;23.198;2023-03-11T09:35:41;93031.69;;;16.27;52.49
63097;BME280;49185;42.320;23.198;2023-03-11T09:38:07;93017.69;;;17.76;43.34
63097;BME280;49185;42.320;23.198;2023-03-11T09:40:57;93027.03;;;17.33;44.46
63097;BME280;49185;42.320;23.198;2023-03-11T09:46:29;93042.78;;;16.89;46.35
63097;BME280;49185;42.320;23.198;2023-03-11T09:51:35;93040.94;;;16.09;45.59
63097;BME280;49185;42.320;23.198;2023-03-11T09:54:04;93029.13;;;15.71;47.47
63097;BME280;49185;42.320;23.198;2023-03-11T09:56:33;93034.25;;;15.94;47.60
63097;BME280;49185;42.320;23.198;2023-03-11T09:59:14;93028.34;;;15.80;50.56
63097;BME280;49185;42.320;23.198;2023-03-11T10:01:44;93034.06;;;14.87;48.16
63097;BME280;49185;42.320;23.198;2023-03-11T10:04:13;93034.22;;;14.30;51.04
63097;BME280;49185;42.320;23.198;2023-03-11T10:06:43;93033.63;;;14.59;48.86
63097;BME280;49185;42.320;23.198;2023-03-11T10:26:14;93043.78;;;13.24;54.80
63097;BME280;49185;42.320;23.198;2023-03-11T10:28:50;93037.09;;;13.36;54.44
63097;BME280;49185;42.320;23.198;2023-03-11T10:34:03;93044.19;;;13.18;56.79
63097;BME280;49185;42.320;23.198;2023-03-11T10:39:18;93051.22;;;12.82;56.07
63097;BME280;49185;42.320;23.198;2023-03-11T10:41:54;93048.38;;;13.10;55.88
63097;BME280;49185;42.320;23.198;2023-03-11T10:44:26;93053.41;;;13.11;55.43
63097;BME280;49185;42.320;23.198;2023-03-11T10:46:52;93056.25;;;13.15;55.25
63097;BME280;49185;42.320;23.198;2023-03-11T10:49:18;93053.31;;;12.94;55.99
63097;BME280;49185;42.320;23.198;2023-03-11T10:51:48;93061.44;;;13.11;55.09
63097;BME280;49185;42.320;23.198;2023-03-11T10:57:02;93061.63;;;12.70;61.88
63097;BME280;49185;42.320;23.198;2023-03-11T10:59:45;93051.25;;;12.09;65.71
63097;BME280;49185;42.320;23.198;2023-03-11T11:02:24;93058.97;;;12.33;63.71
63097;BME280;49185;42.320;23.198;2023-03-11T11:07:45;93035.59;;;14.10;61.32
63097;BME280;49185;42.320;23.198;2023-03-11T11:10:12;93040.97;;;14.44;60.90
63097;BME280;49185;42.320;23.198;2023-03-11T11:12:51;93043.47;;;14.23;59.75
63097;BME280;49185;42.320;23.198;2023-03-11T11:15:34;93046.50;;;13.73;60.60
63097;BME280;49185;42.320;23.198;2023-03-11T11:18:05;93044.63;;;13.34;63.47
63097;BME280;49185;42.320;23.198;2023-03-11T11:20:58;93037.16;;;14.11;58.53
63097;BME280;49185;42.320;23.198;2023-03-11T11:23:42;93034.31;;;12.96;59.74
63097;BME280;49185;42.320;23.198;2023-03-11T11:26:23;93025.19;;;12.88;58.55
63097;BME280;49185;42.320;23.198;2023-03-11T11:31:37;93013.72;;;13.50;59.17
63097;BME280;49185;42.320;23.198;2023-03-11T11:36:48;93009.75;;;15.74;55.30
63097;BME280;49185;42.320;23.198;2023-03-11T11:39:16;93005.97;;;16.26;49.53
63097;BME280;49185;42.320;23.198;2023-03-11T11:41:44;93003.22;;;15.84;51.51
63097;BME280;49185;42.320;23.198;2023-03-11T11:44:15;92997.94;;;15.19;52.17
63097;BME280;49185;42.320;23.198;2023-03-11T11:46:53;92991.88;;;14.49;53.57
63097;BME280;49185;42.320;23.198;2023-03-11T11:49:23;92984.53;;;15.28;50.49
63097;BME280;49185;42.320;23.198;2023-03-11T11:52:12;92986.91;;;15.60;49.22
63097;BME280;49185;42.320;23.198;2023-03-11T11:54:52;92981.44;;;15.47;48.56
63097;BME280;49185;42.320;23.198;2023-03-11T11:57:22;92980.75;;;15.21;49.47
63097;BME280;49185;42.320;23.198;2023-03-11T11:59:48;92968.69;;;15.06;51.85
63097;BME280;49185;42.320;23.198;2023-03-11T12:02:43;92977.72;;;15.31;49.17
63097;BME280;49185;42.320;23.198;2023-03-11T12:05:22;92979.28;;;15.41;49.31
63097;BME280;49185;42.320;23.198;2023-03-11T12:08:16;92977.91;;;15.17;49.61
63097;BME280;49185;42.320;23.198;2023-03-11T12:11:09;92975.50;;;14.86;49.62
63097;BME280;49185;42.320;23.198;2023-03-11T12:19:18;92982.44;;;14.78;52.18
63097;BME280;49185;42.320;23.198;2023-03-11T12:27:48;92971.66;;;15.04;50.60
63097;BME280;49185;42.320;23.198;2023-03-11T12:30:19;92961.47;;;14.89;49.32
63097;BME280;49185;42.320;23.198;2023-03-11T12:32:50;92964.41;;;15.05;49.35
63097;BME280;49185;42.320;23.198;2023-03-11T12:35:28;92953.13;;;14.81;49.52
63097;BME280;49185;42.320;23.198;2023-03-11T12:43:24;92940.34;;;15.34;50.35
63097;BME280;49185;42.320;23.198;2023-03-11T12:45:51;92937.03;;;16.39;46.81
63097;BME280;49185;42.320;23.198;2023-03-11T12:50:52;92930.31;;;16.87;45.03
63097;BME280;49185;42.320;23.198;2023-03-11T12:53:18;92931.22;;;16.37;44.97
63097;BME280;49185;42.320;23.198;2023-03-11T13:04:20;92963.19;;;16.00;44.68
63097;BME280;49185;42.320;23.198;2023-03-11T13:09:29;92980.53;;;15.34;46.54
63097;BME280;49185;42.320;23.198;2023-03-11T13:11:54;92973.50;;;15.60;43.83
63097;BME280;49185;42.320;23.198;2023-03-11T13:14:27;92972.69;;;15.68;45.41
63097;BME280;49185;42.320;23.198;2023-03-11T13:16:54;92962.78;;;15.30;46.91
63097;BME280;49185;42.320;23.198;2023-03-11T13:21:51;92966.06;;;14.53;47.51
63097;BME280;49185;42.320;23.198;2023-03-11T13:35:20;92977.09;;;14.08;49.28
63097;BME280;49185;42.320;23.198;2023-03-11T13:40:36;92984.44;;;13.85;50.67
63097;BME280;49185;42.320;23.198;2023-03-11T13:43:09;92991.47;;;13.72;51.22
63097;BME280;49185;42.320;23.198;2023-03-11T13:45:37;92995.56;;;13.70;51.58
63097;BME280;49185;42.320;23.198;2023-03-11T13:51:02;92998.59;;;13.37;53.36
63097;BME280;49185;42.320;23.198;2023-03-11T13:53:33;92996.47;;;13.25;53.68
63097;BME280;49185;42.320;23.198;2023-03-11T13:56:00;93007.28;;;12.88;56.52
63097;BME280;49185;42.320;23.198;2023-03-11T13:58:27;93003.69;;;12.93;55.08
63097;BME280;49185;42.320;23.198;2023-03-11T14:00:57;93009.88;;;13.02;57.06
63097;BME280;49185;42.320;23.198;2023-03-11T14:03:25;93010.94;;;13.01;57.50
63097;BME280;49185;42.320;23.198;2023-03-11T14:06:04;93015.63;;;12.96;56.74
63097;BME280;49185;42.320;23.198;2023-03-11T14:08:33;93004.59;;;12.88;55.08
63097;BME280;49185;42.320;23.198;2023-03-11T14:13:40;93032.88;;;12.67;55.80
63097;BME280;49185;42.320;23.198;2023-03-11T14:16:14;93023.91;;;12.63;55.83
63097;BME280;49185;42.320;23.198;2023-03-11T14:18:46;93041.00;;;12.62;55.19
63097;BME280;49185;42.320;23.198;2023-03-11T14:21:22;93040.56;;;12.46;55.03
63097;BME280;49185;42.320;23.198;2023-03-11T14:23:50;93047.81;;;12.31;54.39
63097;BME280;49185;42.320;23.198;2023-03-11T14:26:21;93053.47;;;12.16;54.48
63097;BME280;49185;42.320;23.198;2023-03-11T14:28:51;93062.38;;;12.11;54.67
63097;BME280;49185;42.320;23.198;2023-03-11T14:31:22;93062.59;;;12.01;54.84
63097;BME280;49185;42.320;23.198;2023-03-11T14:34:03;93079.75;;;11.95;56.13